createdAt,value
2024-02-24T00:00:25.105Z,33.23
2024-02-24T00:00:56.612Z,33.21
2024-02-24T00:01:28.099Z,33.38
2024-02-24T00:01:59.524Z,33.51
2024-02-24T00:02:31.043Z,33.30
2024-02-24T00:03:02.584Z,33.43
2024-02-24T00:03:34.067Z,33.36
2024-02-24T00:04:05.552Z,33.34
2024-02-24T00:04:37.169Z,33.46
2024-02-24T00:05:08.724Z,33.41
2024-02-24T00:05:40.311Z,33.35
2024-02-24T00:06:11.830Z,33.42
2024-02-24T00:06:43.374Z,33.26
2024-02-24T00:07:14.920Z,33.22
2024-02-24T00:07:46.364Z,33.44
2024-02-24T00:08:17.880Z,33.31
2024-02-24T00:08:49.372Z,33.18
2024-02-24T00:09:20.871Z,33.45
2024-02-24T00:09:52.439Z,33.26
2024-02-24T00:10:23.946Z,33.34
2024-02-24T00:10:55.432Z,33.32
2024-02-24T00:11:26.936Z,33.21
2024-02-24T00:11:58.589Z,33.19
2024-02-24T00:12:30.177Z,33.22
2024-02-24T00:13:01.697Z,33.23
2024-02-24T00:13:33.165Z,33.33
2024-02-24T00:14:04.681Z,33.36
2024-02-24T00:14:36.184Z,33.05
2024-02-24T00:15:07.662Z,33.33
2024-02-24T00:15:39.161Z,33.14
2024-02-24T00:16:10.665Z,32.91
2024-02-24T00:16:42.194Z,33.18
2024-02-24T00:17:13.788Z,33.15
2024-02-24T00:17:45.382Z,33.14
2024-02-24T00:18:16.936Z,33.06
2024-02-24T00:18:48.410Z,33.05
2024-02-24T00:19:19.957Z,33.28
2024-02-24T00:19:51.473Z,33.36
2024-02-24T00:20:22.983Z,33.32
2024-02-24T00:20:54.398Z,33.29
2024-02-24T00:21:25.932Z,33.18
2024-02-24T00:21:57.369Z,33.21
2024-02-24T00:22:28.844Z,33.38
2024-02-24T00:23:00.456Z,33.52
2024-02-24T00:23:32.074Z,33.43
2024-02-24T00:24:03.562Z,33.35
2024-02-24T00:24:35.099Z,33.46
2024-02-24T00:25:06.554Z,33.53
2024-02-24T00:25:38.082Z,33.07
2024-02-24T00:26:09.718Z,33.08
2024-02-24T00:26:41.265Z,33.14
2024-02-24T00:27:13.250Z,33.19
2024-02-24T00:27:44.734Z,33.15
2024-02-24T00:28:16.219Z,33.19
2024-02-24T00:28:47.625Z,33.14
2024-02-24T00:29:19.201Z,33.26
2024-02-24T00:29:50.686Z,33.35
2024-02-24T00:30:22.287Z,33.17
2024-02-24T00:30:53.798Z,33.05
2024-02-24T00:31:25.211Z,33.24
2024-02-24T00:31:56.646Z,33.43
2024-02-24T00:32:28.141Z,33.50
2024-02-24T00:32:59.752Z,33.47
2024-02-24T00:33:31.312Z,33.41
2024-02-24T00:34:02.767Z,33.40
2024-02-24T00:34:34.321Z,33.05
2024-02-24T00:35:05.939Z,33.16
2024-02-24T00:35:38.741Z,33.12
2024-02-24T00:36:10.197Z,33.24
2024-02-24T00:36:41.704Z,33.32
2024-02-24T00:37:13.240Z,33.50
2024-02-24T00:37:44.722Z,33.35
2024-02-24T00:38:16.205Z,33.29
2024-02-24T00:38:47.739Z,33.46
2024-02-24T00:39:19.212Z,33.38
2024-02-24T00:39:50.700Z,33.62
2024-02-24T00:40:22.150Z,33.46
2024-02-24T00:40:53.669Z,33.37
2024-02-24T00:41:25.170Z,33.37
2024-02-24T00:41:56.720Z,33.37
2024-02-24T00:42:28.202Z,33.32
2024-02-24T00:42:59.678Z,33.43
2024-02-24T00:43:31.178Z,33.51
2024-02-24T00:44:02.621Z,33.24
2024-02-24T00:44:34.224Z,33.41
2024-02-24T00:45:05.742Z,33.31
2024-02-24T00:45:37.207Z,33.18
2024-02-24T00:46:08.681Z,33.49
2024-02-24T00:46:40.171Z,33.27
2024-02-24T00:47:11.683Z,33.23
2024-02-24T00:47:43.367Z,33.29
2024-02-24T00:48:14.831Z,33.58
2024-02-24T00:48:46.455Z,33.53
2024-02-24T00:49:18.043Z,33.38
2024-02-24T00:49:49.521Z,33.34
2024-02-24T00:50:22.541Z,33.45
2024-02-24T00:50:53.996Z,33.30
2024-02-24T00:51:25.500Z,33.53
2024-02-24T00:51:56.995Z,33.26
2024-02-24T00:52:28.444Z,33.26
2024-02-24T00:52:59.903Z,33.26
2024-02-24T00:53:31.418Z,33.08
2024-02-24T00:54:02.929Z,33.13
2024-02-24T00:54:34.443Z,33.27
2024-02-24T00:55:05.911Z,33.01
2024-02-24T00:55:37.377Z,32.96
2024-02-24T00:56:08.885Z,33.22
2024-02-24T00:56:40.427Z,33.35
2024-02-24T00:57:11.964Z,33.12
2024-02-24T00:57:43.494Z,33.32
2024-02-24T00:58:14.985Z,33.43
2024-02-24T00:58:46.523Z,33.46
2024-02-24T00:59:18.107Z,33.41
2024-02-24T00:59:49.666Z,33.46
2024-02-24T01:00:21.303Z,33.52
2024-02-24T01:00:52.950Z,33.42
2024-02-24T01:01:24.595Z,33.45
2024-02-24T01:01:56.102Z,33.31
2024-02-24T01:02:30.432Z,33.24
2024-02-24T01:03:01.989Z,33.24
2024-02-24T01:03:33.476Z,33.35
2024-02-24T01:04:05.010Z,33.42
2024-02-24T01:04:36.536Z,33.31
2024-02-24T01:05:08.242Z,33.50
2024-02-24T01:05:39.687Z,33.41
2024-02-24T01:06:11.198Z,33.15
2024-02-24T01:06:42.729Z,33.20
2024-02-24T01:07:14.330Z,33.45
2024-02-24T01:07:48.361Z,33.26
2024-02-24T01:08:19.991Z,33.14
2024-02-24T01:08:51.622Z,33.22
2024-02-24T01:09:23.201Z,33.23
2024-02-24T01:09:54.698Z,33.35
2024-02-24T01:10:26.238Z,33.24
2024-02-24T01:10:57.727Z,33.21
2024-02-24T01:11:29.293Z,33.41
2024-02-24T01:12:00.883Z,33.25
2024-02-24T01:12:32.498Z,33.31
2024-02-24T01:13:03.941Z,33.24
2024-02-24T01:13:35.558Z,33.31
2024-02-24T01:14:09.688Z,33.26
2024-02-24T01:14:41.169Z,33.38
2024-02-24T01:15:12.741Z,33.23
2024-02-24T01:15:44.231Z,33.20
2024-02-24T01:16:15.671Z,33.21
2024-02-24T01:16:47.142Z,33.21
2024-02-24T01:17:18.681Z,33.33
2024-02-24T01:17:50.321Z,32.99
2024-02-24T01:18:22.052Z,33.25
2024-02-24T01:18:53.921Z,33.14
2024-02-24T01:19:25.658Z,33.37
2024-02-24T01:19:57.201Z,33.25
2024-02-24T01:20:28.715Z,33.11
2024-02-24T01:21:00.137Z,33.31
2024-02-24T01:21:31.729Z,33.20
2024-02-24T01:22:03.204Z,33.04
2024-02-24T01:22:34.665Z,33.11
2024-02-24T01:23:06.262Z,33.34
2024-02-24T01:23:37.926Z,33.25
2024-02-24T01:24:09.416Z,33.21
2024-02-24T01:24:40.955Z,33.16
2024-02-24T01:25:12.447Z,33.23
2024-02-24T01:25:43.957Z,33.12
2024-02-24T01:26:15.406Z,33.16
2024-02-24T01:26:47.021Z,32.89
2024-02-24T01:27:18.510Z,33.23
2024-02-24T01:27:50.065Z,33.16
2024-02-24T01:28:21.566Z,33.22
2024-02-24T01:28:53.046Z,33.19
2024-02-24T01:29:24.694Z,33.05
2024-02-24T01:29:56.168Z,33.15
2024-02-24T01:30:27.727Z,33.19
2024-02-24T01:30:59.392Z,33.13
2024-02-24T01:31:30.903Z,33.11
2024-02-24T01:32:02.445Z,33.08
2024-02-24T01:32:34.031Z,33.13
2024-02-24T01:33:05.771Z,33.21
2024-02-24T01:33:37.464Z,33.25
2024-02-24T01:34:09.025Z,33.26
2024-02-24T01:34:40.666Z,33.22
2024-02-24T01:35:12.197Z,32.96
2024-02-24T01:35:46.476Z,33.15
2024-02-24T01:36:17.941Z,32.95
2024-02-24T01:36:49.399Z,33.20
2024-02-24T01:37:20.956Z,33.25
2024-02-24T01:37:52.431Z,33.38
2024-02-24T01:38:23.967Z,33.05
2024-02-24T01:38:55.485Z,33.17
2024-02-24T01:39:26.976Z,33.10
2024-02-24T01:39:58.453Z,33.32
2024-02-24T01:40:29.958Z,33.08
2024-02-24T01:41:01.410Z,33.25
2024-02-24T01:41:32.992Z,33.18
2024-02-24T01:42:04.544Z,33.14
2024-02-24T01:42:36.056Z,33.29
2024-02-24T01:43:07.498Z,33.16
2024-02-24T01:43:38.997Z,33.06
2024-02-24T01:44:10.507Z,33.37
2024-02-24T01:44:41.989Z,33.26
2024-02-24T01:45:13.516Z,33.24
2024-02-24T01:45:45.090Z,33.06
2024-02-24T01:46:16.493Z,33.18
2024-02-24T01:46:49.179Z,33.23
2024-02-24T01:47:20.678Z,33.19
2024-02-24T01:47:52.297Z,33.23
2024-02-24T01:48:23.897Z,33.31
2024-02-24T01:48:55.634Z,33.18
2024-02-24T01:49:27.208Z,33.24
2024-02-24T01:49:58.769Z,33.14
2024-02-24T01:50:30.260Z,33.31
2024-02-24T01:51:01.794Z,33.32
2024-02-24T01:51:33.300Z,33.15
2024-02-24T01:52:04.745Z,33.22
2024-02-24T01:52:36.201Z,33.22
2024-02-24T01:53:07.719Z,33.23
2024-02-24T01:53:39.201Z,33.28
2024-02-24T01:54:10.716Z,33.20
2024-02-24T01:54:42.191Z,33.19
2024-02-24T01:55:13.764Z,33.32
2024-02-24T01:55:45.260Z,33.35
2024-02-24T01:56:16.792Z,33.19
2024-02-24T01:56:48.360Z,33.26
2024-02-24T01:57:19.922Z,33.14
2024-02-24T01:57:51.404Z,33.04
2024-02-24T01:58:23.060Z,33.20
2024-02-24T01:58:54.580Z,33.15
2024-02-24T01:59:26.196Z,33.21
2024-02-24T01:59:57.793Z,33.24
2024-02-24T02:00:29.301Z,33.16
2024-02-24T02:01:02.965Z,33.30
2024-02-24T02:01:34.434Z,33.12
2024-02-24T02:02:05.988Z,33.10
2024-02-24T02:02:37.543Z,33.33
2024-02-24T02:03:09.013Z,33.43
2024-02-24T02:03:40.779Z,33.26
2024-02-24T02:04:12.309Z,33.21
2024-02-24T02:04:43.825Z,33.43
2024-02-24T02:05:17.278Z,33.33
2024-02-24T02:05:48.974Z,33.21
2024-02-24T02:06:20.741Z,33.16
2024-02-24T02:06:52.333Z,33.25
2024-02-24T02:07:23.791Z,33.30
2024-02-24T02:07:55.253Z,33.14
2024-02-24T02:08:26.809Z,33.18
2024-02-24T02:08:58.424Z,33.36
2024-02-24T02:09:29.880Z,33.29
2024-02-24T02:10:01.368Z,33.32
2024-02-24T02:10:32.809Z,33.24
2024-02-24T02:11:04.412Z,33.24
2024-02-24T02:11:42.119Z,33.04
2024-02-24T02:12:19.601Z,33.18
2024-02-24T02:12:51.219Z,33.20
2024-02-24T02:13:22.773Z,33.08
2024-02-24T02:13:54.265Z,33.27
2024-02-24T02:14:25.741Z,33.52
2024-02-24T02:14:59.890Z,33.37
2024-02-24T02:15:31.360Z,33.21
2024-02-24T02:16:02.873Z,33.36
2024-02-24T02:16:34.290Z,33.49
2024-02-24T02:17:05.829Z,33.26
2024-02-24T02:17:37.527Z,33.18
2024-02-24T02:18:09.216Z,33.27
2024-02-24T02:18:40.884Z,33.29
2024-02-24T02:19:12.502Z,33.32
2024-02-24T02:19:44.065Z,33.01
2024-02-24T02:20:15.582Z,33.18
2024-02-24T02:20:47.227Z,33.16
2024-02-24T02:21:18.715Z,33.07
2024-02-24T02:21:50.178Z,33.09
2024-02-24T02:22:21.709Z,33.14
2024-02-24T02:22:53.184Z,33.11
2024-02-24T02:23:24.678Z,33.30
2024-02-24T02:23:56.161Z,33.05
2024-02-24T02:24:27.645Z,33.20
2024-02-24T02:24:59.217Z,33.22
2024-02-24T02:25:30.744Z,33.18
2024-02-24T02:26:02.254Z,33.03
2024-02-24T02:26:33.734Z,33.12
2024-02-24T02:27:05.226Z,33.15
2024-02-24T02:27:36.725Z,33.15
2024-02-24T02:28:08.225Z,33.15
2024-02-24T02:28:39.671Z,33.16
2024-02-24T02:29:11.241Z,33.24
2024-02-24T02:29:42.816Z,33.20
2024-02-24T02:30:14.340Z,33.05
2024-02-24T02:30:45.820Z,33.25
2024-02-24T02:31:17.297Z,33.30
2024-02-24T02:31:48.811Z,33.13
2024-02-24T02:32:20.444Z,33.05
2024-02-24T02:32:52.208Z,33.28
2024-02-24T02:33:24.274Z,33.13
2024-02-24T02:33:57.995Z,33.12
2024-02-24T02:34:29.579Z,33.33
2024-02-24T02:35:01.099Z,33.32
2024-02-24T02:35:32.747Z,33.26
2024-02-24T02:36:04.324Z,33.21
2024-02-24T02:36:35.930Z,33.06
2024-02-24T02:37:07.432Z,33.07
2024-02-24T02:37:38.891Z,33.33
2024-02-24T02:38:10.512Z,33.35
2024-02-24T02:38:42.106Z,33.20
2024-02-24T02:39:13.642Z,33.36
2024-02-24T02:39:45.025Z,33.32
2024-02-24T02:40:16.569Z,33.33
2024-02-24T02:40:48.033Z,33.26
2024-02-24T02:41:19.626Z,33.30
2024-02-24T02:41:51.173Z,33.20
2024-02-24T02:42:22.604Z,33.12
2024-02-24T02:42:54.100Z,33.15
2024-02-24T02:43:25.616Z,33.04
2024-02-24T02:43:57.081Z,33.26
2024-02-24T02:44:28.600Z,33.22
2024-02-24T02:45:00.182Z,33.12
2024-02-24T02:45:31.674Z,33.15
2024-02-24T02:46:03.181Z,33.20
2024-02-24T02:46:34.637Z,32.96
2024-02-24T02:47:14.658Z,33.34
2024-02-24T02:47:49.326Z,33.12
2024-02-24T02:48:20.940Z,33.14
2024-02-24T02:48:52.604Z,33.22
2024-02-24T02:49:24.313Z,33.04
2024-02-24T02:49:55.826Z,33.17
2024-02-24T02:50:27.386Z,32.99
2024-02-24T02:50:58.978Z,33.20
2024-02-24T02:51:30.451Z,33.10
2024-02-24T02:52:01.898Z,33.29
2024-02-24T02:52:33.421Z,33.20
2024-02-24T02:53:04.962Z,33.26
2024-02-24T02:53:36.575Z,33.32
2024-02-24T02:54:08.099Z,33.25
2024-02-24T02:54:39.547Z,33.31
2024-02-24T02:55:11.467Z,33.21
2024-02-24T02:55:42.939Z,33.08
2024-02-24T02:56:14.390Z,33.18
2024-02-24T02:56:45.917Z,33.31
2024-02-24T02:57:17.428Z,33.11
2024-02-24T02:57:48.877Z,33.13
2024-02-24T02:58:23.262Z,33.23
2024-02-24T02:58:54.922Z,33.29
2024-02-24T02:59:26.381Z,33.47
2024-02-24T02:59:57.910Z,33.54
2024-02-24T03:00:29.394Z,33.19
2024-02-24T03:01:01.017Z,33.21
2024-02-24T03:01:32.554Z,33.24
2024-02-24T03:02:04.027Z,33.29
2024-02-24T03:02:35.556Z,33.25
2024-02-24T03:03:07.021Z,33.31
2024-02-24T03:03:38.512Z,33.21
2024-02-24T03:04:10.030Z,33.41
2024-02-24T03:04:41.551Z,33.31
2024-02-24T03:05:13.175Z,33.36
2024-02-24T03:05:44.794Z,33.30
2024-02-24T03:06:16.412Z,33.35
2024-02-24T03:06:47.935Z,33.27
2024-02-24T03:07:19.498Z,33.22
2024-02-24T03:07:50.954Z,33.31
2024-02-24T03:08:22.452Z,33.33
2024-02-24T03:08:56.954Z,33.01
2024-02-24T03:09:28.798Z,33.19
2024-02-24T03:10:00.321Z,33.34
2024-02-24T03:10:31.815Z,33.18
2024-02-24T03:11:03.391Z,33.28
2024-02-24T03:11:34.985Z,33.08
2024-02-24T03:12:06.586Z,33.26
2024-02-24T03:12:38.335Z,33.14
2024-02-24T03:13:09.923Z,33.29
2024-02-24T03:13:41.540Z,33.18
2024-02-24T03:14:13.109Z,33.18
2024-02-24T03:14:44.743Z,33.30
2024-02-24T03:15:16.315Z,33.18
2024-02-24T03:15:47.830Z,33.15
2024-02-24T03:16:19.277Z,33.16
2024-02-24T03:16:50.730Z,33.24
2024-02-24T03:17:22.302Z,33.05
2024-02-24T03:17:53.873Z,33.15
2024-02-24T03:18:25.654Z,33.33
2024-02-24T03:18:57.309Z,33.31
2024-02-24T03:19:28.962Z,33.27
2024-02-24T03:20:00.449Z,33.09
2024-02-24T03:20:31.944Z,33.23
2024-02-24T03:21:03.402Z,33.08
2024-02-24T03:21:34.864Z,33.43
2024-02-24T03:22:06.365Z,33.36
2024-02-24T03:22:37.831Z,33.27
2024-02-24T03:23:09.526Z,33.22
2024-02-24T03:23:41.185Z,33.41
2024-02-24T03:24:12.709Z,33.26
2024-02-24T03:24:44.217Z,33.15
2024-02-24T03:25:15.650Z,33.38
2024-02-24T03:25:47.136Z,33.26
2024-02-24T03:26:18.577Z,33.28
2024-02-24T03:26:50.122Z,33.47
2024-02-24T03:27:21.647Z,33.19
2024-02-24T03:27:53.133Z,33.10
2024-02-24T03:28:24.935Z,33.30
2024-02-24T03:28:56.387Z,33.30
2024-02-24T03:29:27.906Z,33.33
2024-02-24T03:29:59.448Z,33.17
2024-02-24T03:30:30.897Z,33.43
2024-02-24T03:31:02.366Z,33.38
2024-02-24T03:31:33.831Z,33.35
2024-02-24T03:32:07.123Z,33.38
2024-02-24T03:32:38.854Z,33.42
2024-02-24T03:33:10.516Z,33.31
2024-02-24T03:33:42.187Z,33.25
2024-02-24T03:34:13.829Z,33.22
2024-02-24T03:34:45.328Z,33.16
2024-02-24T03:35:16.902Z,33.34
2024-02-24T03:35:48.392Z,33.17
2024-02-24T03:36:19.837Z,33.28
2024-02-24T03:36:51.345Z,33.18
2024-02-24T03:37:22.867Z,33.35
2024-02-24T03:37:54.320Z,33.22
2024-02-24T03:38:25.885Z,33.16
2024-02-24T03:38:57.406Z,33.21
2024-02-24T03:39:28.933Z,33.30
2024-02-24T03:40:00.519Z,33.12
2024-02-24T03:40:32.110Z,33.40
2024-02-24T03:41:03.543Z,33.32
2024-02-24T03:41:35.037Z,33.43
2024-02-24T03:42:06.540Z,33.26
2024-02-24T03:42:37.985Z,33.11
2024-02-24T03:43:09.441Z,33.27
2024-02-24T03:43:40.940Z,33.34
2024-02-24T03:44:12.440Z,33.25
2024-02-24T03:44:43.918Z,33.26
2024-02-24T03:45:15.425Z,33.25
2024-02-24T03:45:46.943Z,33.32
2024-02-24T03:46:18.513Z,33.29
2024-02-24T03:46:50.011Z,33.28
2024-02-24T03:47:21.478Z,33.27
2024-02-24T03:47:53.035Z,33.35
2024-02-24T03:48:24.656Z,33.22
2024-02-24T03:48:56.207Z,33.27
2024-02-24T03:49:27.830Z,33.32
2024-02-24T03:49:59.367Z,33.38
2024-02-24T03:50:30.846Z,33.37
2024-02-24T03:51:02.363Z,33.32
2024-02-24T03:51:33.888Z,33.27
2024-02-24T03:52:05.389Z,33.30
2024-02-24T03:52:36.843Z,33.14
2024-02-24T03:53:08.468Z,33.29
2024-02-24T03:53:40.077Z,33.31
2024-02-24T03:54:11.524Z,33.30
2024-02-24T03:54:42.967Z,33.36
2024-02-24T03:55:14.452Z,33.34
2024-02-24T03:55:47.801Z,33.36
2024-02-24T03:56:19.333Z,33.23
2024-02-24T03:56:50.855Z,33.32
2024-02-24T03:57:22.352Z,33.37
2024-02-24T03:57:53.807Z,33.46
2024-02-24T03:58:25.252Z,33.35
2024-02-24T03:58:56.674Z,33.43
2024-02-24T03:59:31.271Z,33.41
2024-02-24T04:00:02.779Z,33.44
2024-02-24T04:00:37.345Z,33.40
2024-02-24T04:01:08.858Z,33.40
2024-02-24T04:01:40.310Z,33.34
2024-02-24T04:02:11.890Z,33.39
2024-02-24T04:02:43.502Z,33.34
2024-02-24T04:03:15.031Z,33.39
2024-02-24T04:03:46.491Z,33.42
2024-02-24T04:04:18.097Z,33.40
2024-02-24T04:04:49.569Z,33.34
2024-02-24T04:05:23.864Z,33.48
2024-02-24T04:05:55.470Z,33.52
2024-02-24T04:06:27.033Z,33.37
2024-02-24T04:06:58.564Z,33.39
2024-02-24T04:07:30.079Z,33.49
2024-02-24T04:08:01.547Z,33.51
2024-02-24T04:08:33.044Z,33.60
2024-02-24T04:09:04.558Z,33.58
2024-02-24T04:09:36.075Z,33.62
2024-02-24T04:10:07.576Z,33.66
2024-02-24T04:10:39.062Z,33.60
2024-02-24T04:11:10.573Z,33.70
2024-02-24T04:11:42.301Z,33.58
2024-02-24T04:12:13.871Z,33.62
2024-02-24T04:12:45.402Z,33.59
2024-02-24T04:13:17.010Z,33.50
2024-02-24T04:13:48.513Z,33.49
2024-02-24T04:14:19.972Z,33.57
2024-02-24T04:14:51.554Z,33.46
2024-02-24T04:15:23.130Z,33.57
2024-02-24T04:15:54.613Z,33.50
2024-02-24T04:16:26.141Z,33.53
2024-02-24T04:16:57.635Z,33.41
2024-02-24T04:17:29.128Z,33.41
2024-02-24T04:18:00.737Z,33.25
2024-02-24T04:18:32.588Z,33.41
2024-02-24T04:19:04.221Z,33.43
2024-02-24T04:19:38.815Z,33.39
2024-02-24T04:20:10.302Z,33.37
2024-02-24T04:20:41.889Z,33.50
2024-02-24T04:21:13.467Z,33.45
2024-02-24T04:21:44.932Z,33.38
2024-02-24T04:22:16.377Z,33.51
2024-02-24T04:22:47.890Z,33.49
2024-02-24T04:23:19.397Z,33.59
2024-02-24T04:23:51.460Z,33.48
2024-02-24T04:24:22.981Z,33.51
2024-02-24T04:24:54.446Z,33.44
2024-02-24T04:25:25.969Z,33.58
2024-02-24T04:25:57.446Z,33.87
2024-02-24T04:26:29.022Z,33.56
2024-02-24T04:27:03.796Z,33.41
2024-02-24T04:27:35.292Z,33.54
2024-02-24T04:28:06.776Z,33.60
2024-02-24T04:28:38.325Z,33.36
2024-02-24T04:29:09.893Z,33.27
2024-02-24T04:29:41.449Z,33.67
2024-02-24T04:30:12.941Z,33.57
2024-02-24T04:30:44.394Z,33.63
2024-02-24T04:31:15.853Z,33.54
2024-02-24T04:31:47.315Z,33.41
2024-02-24T04:32:18.792Z,33.54
2024-02-24T04:32:50.359Z,33.51
2024-02-24T04:33:22.048Z,33.55
2024-02-24T04:33:53.634Z,33.32
2024-02-24T04:34:25.221Z,33.28
2024-02-24T04:34:56.708Z,33.42
2024-02-24T04:35:28.281Z,33.51
2024-02-24T04:35:59.921Z,33.65
2024-02-24T04:36:31.470Z,33.70
2024-02-24T04:37:02.944Z,33.61
2024-02-24T04:37:34.421Z,33.51
2024-02-24T04:38:06.485Z,33.63
2024-02-24T04:38:38.019Z,33.53
2024-02-24T04:39:09.778Z,33.35
2024-02-24T04:39:41.221Z,33.43
2024-02-24T04:40:12.787Z,33.62
2024-02-24T04:40:44.419Z,33.79
2024-02-24T04:41:16.014Z,33.64
2024-02-24T04:41:47.553Z,33.40
2024-02-24T04:42:19.173Z,33.58
2024-02-24T04:42:50.665Z,33.52
2024-02-24T04:43:22.208Z,33.40
2024-02-24T04:43:53.691Z,33.29
2024-02-24T04:44:25.274Z,33.53
2024-02-24T04:44:56.729Z,33.68
2024-02-24T04:45:28.267Z,33.57
2024-02-24T04:45:59.734Z,33.58
2024-02-24T04:46:31.264Z,33.53
2024-02-24T04:47:02.685Z,33.30
2024-02-24T04:47:34.334Z,33.51
2024-02-24T04:48:06.095Z,33.49
2024-02-24T04:48:37.895Z,33.41
2024-02-24T04:49:09.556Z,33.63
2024-02-24T04:49:41.132Z,33.69
2024-02-24T04:50:12.732Z,33.62
2024-02-24T04:50:44.289Z,33.67
2024-02-24T04:51:15.738Z,33.42
2024-02-24T04:51:47.277Z,33.29
2024-02-24T04:52:18.733Z,33.49
2024-02-24T04:52:52.031Z,33.31
2024-02-24T04:53:23.555Z,33.49
2024-02-24T04:53:55.010Z,33.35
2024-02-24T04:54:26.462Z,33.33
2024-02-24T04:54:57.950Z,33.35
2024-02-24T04:55:29.463Z,33.45
2024-02-24T04:56:00.969Z,33.24
2024-02-24T04:56:32.480Z,33.46
2024-02-24T04:57:04.027Z,33.33
2024-02-24T04:57:35.466Z,33.58
2024-02-24T04:58:06.930Z,33.52
2024-02-24T04:58:38.401Z,33.30
2024-02-24T04:59:09.920Z,33.42
2024-02-24T04:59:41.474Z,33.59
2024-02-24T05:00:12.969Z,33.63
2024-02-24T05:00:44.485Z,33.60
2024-02-24T05:01:16.038Z,33.33
2024-02-24T05:01:47.569Z,33.71
2024-02-24T05:02:19.056Z,33.51
2024-02-24T05:02:50.807Z,33.34
2024-02-24T05:03:22.398Z,33.50
2024-02-24T05:03:53.850Z,33.52
2024-02-24T05:04:25.379Z,33.55
2024-02-24T05:04:56.883Z,33.36
2024-02-24T05:05:28.404Z,33.39
2024-02-24T05:06:00.073Z,33.30
2024-02-24T05:06:31.789Z,33.57
2024-02-24T05:07:03.266Z,33.31
2024-02-24T05:07:34.741Z,33.51
2024-02-24T05:08:06.361Z,33.54
2024-02-24T05:08:38.158Z,33.41
2024-02-24T05:09:09.913Z,33.40
2024-02-24T05:09:41.398Z,33.57
2024-02-24T05:10:12.844Z,33.65
2024-02-24T05:10:44.471Z,33.62
2024-02-24T05:11:15.959Z,33.62
2024-02-24T05:11:47.688Z,33.69
2024-02-24T05:12:19.262Z,33.75
2024-02-24T05:12:50.704Z,33.66
2024-02-24T05:13:22.106Z,33.53
2024-02-24T05:13:53.567Z,33.52
2024-02-24T05:14:25.110Z,33.81
2024-02-24T05:14:56.695Z,33.63
2024-02-24T05:15:28.266Z,33.37
2024-02-24T05:15:59.749Z,33.40
2024-02-24T05:16:31.177Z,33.46
2024-02-24T05:17:02.746Z,33.75
2024-02-24T05:17:34.259Z,33.56
2024-02-24T05:18:06.053Z,33.51
2024-02-24T05:18:37.730Z,33.54
2024-02-24T05:19:09.353Z,33.50
2024-02-24T05:19:40.846Z,33.43
2024-02-24T05:20:12.431Z,33.33
2024-02-24T05:20:43.984Z,33.62
2024-02-24T05:21:15.434Z,33.56
2024-02-24T05:21:46.858Z,33.38
2024-02-24T05:22:18.397Z,33.20
2024-02-24T05:22:49.824Z,33.41
2024-02-24T05:23:21.280Z,33.38
2024-02-24T05:23:52.897Z,33.40
2024-02-24T05:24:24.402Z,33.26
2024-02-24T05:24:55.911Z,33.46
2024-02-24T05:25:27.381Z,33.58
2024-02-24T05:25:58.878Z,33.60
2024-02-24T05:26:30.509Z,33.43
2024-02-24T05:27:02.045Z,33.50
2024-02-24T05:27:33.467Z,33.52
2024-02-24T05:28:04.931Z,33.23
2024-02-24T05:28:39.485Z,33.18
2024-02-24T05:29:11.046Z,33.31
2024-02-24T05:29:42.625Z,33.37
2024-02-24T05:30:14.141Z,33.34
2024-02-24T05:30:45.584Z,33.27
2024-02-24T05:31:17.056Z,33.49
2024-02-24T05:31:48.538Z,33.30
2024-02-24T05:32:20.048Z,33.35
2024-02-24T05:32:51.999Z,33.26
2024-02-24T05:33:24.244Z,33.35
2024-02-24T05:33:56.054Z,33.45
2024-02-24T05:34:27.680Z,33.45
2024-02-24T05:34:59.258Z,33.52
2024-02-24T05:35:30.786Z,33.20
2024-02-24T05:36:02.287Z,33.22
2024-02-24T05:36:33.760Z,33.57
2024-02-24T05:37:05.253Z,33.46
2024-02-24T05:37:36.695Z,33.49
2024-02-24T05:38:08.303Z,33.45
2024-02-24T05:38:39.868Z,33.32
2024-02-24T05:39:11.365Z,33.51
2024-02-24T05:39:42.885Z,33.44
2024-02-24T05:40:14.392Z,33.36
2024-02-24T05:40:45.878Z,33.44
2024-02-24T05:41:17.347Z,33.30
2024-02-24T05:41:48.878Z,33.45
2024-02-24T05:42:20.501Z,33.37
2024-02-24T05:42:51.963Z,33.31
2024-02-24T05:43:23.469Z,33.35
2024-02-24T05:43:54.940Z,33.17
2024-02-24T05:44:26.440Z,33.10
2024-02-24T05:44:58.704Z,33.55
2024-02-24T05:45:30.357Z,33.25
2024-02-24T05:46:03.050Z,33.44
2024-02-24T05:46:34.742Z,33.45
2024-02-24T05:47:06.279Z,33.43
2024-02-24T05:47:37.827Z,33.35
2024-02-24T05:48:09.461Z,33.25
2024-02-24T05:48:41.106Z,33.22
2024-02-24T05:49:12.721Z,33.43
2024-02-24T05:49:44.256Z,33.39
2024-02-24T05:50:15.776Z,33.45
2024-02-24T05:50:47.388Z,33.27
2024-02-24T05:51:18.874Z,33.10
2024-02-24T05:51:50.341Z,33.16
2024-02-24T05:52:21.817Z,33.33
2024-02-24T05:52:53.433Z,33.28
2024-02-24T05:53:24.884Z,33.28
2024-02-24T05:53:56.500Z,33.32
2024-02-24T05:54:27.990Z,33.29
2024-02-24T05:54:59.413Z,33.50
2024-02-24T05:55:30.927Z,33.50
2024-02-24T05:56:02.431Z,33.53
2024-02-24T05:56:33.956Z,33.38
2024-02-24T05:57:05.493Z,33.37
2024-02-24T05:57:37.027Z,33.42
2024-02-24T05:58:08.585Z,33.32
2024-02-24T05:58:40.020Z,33.51
2024-02-24T05:59:11.496Z,33.46
2024-02-24T05:59:43.042Z,33.37
2024-02-24T06:00:14.526Z,33.29
2024-02-24T06:00:47.822Z,33.47
2024-02-24T06:01:19.328Z,33.40
2024-02-24T06:01:50.930Z,33.50
2024-02-24T06:02:22.412Z,33.46
2024-02-24T06:02:53.895Z,33.28
2024-02-24T06:03:25.500Z,33.49
2024-02-24T06:03:57.145Z,33.49
2024-02-24T06:04:28.763Z,33.53
2024-02-24T06:05:00.232Z,33.63
2024-02-24T06:05:31.844Z,33.69
2024-02-24T06:06:03.481Z,33.59
2024-02-24T06:06:35.061Z,33.47
2024-02-24T06:07:06.650Z,33.27
2024-02-24T06:07:38.199Z,33.55
2024-02-24T06:08:09.729Z,33.46
2024-02-24T06:08:41.251Z,33.58
2024-02-24T06:09:12.756Z,33.54
2024-02-24T06:09:44.322Z,33.42
2024-02-24T06:10:15.841Z,33.42
2024-02-24T06:10:47.481Z,33.36
2024-02-24T06:11:19.159Z,33.25
2024-02-24T06:11:50.860Z,33.32
2024-02-24T06:12:22.511Z,33.55
2024-02-24T06:12:56.823Z,33.44
2024-02-24T06:13:28.269Z,33.39
2024-02-24T06:13:59.708Z,33.32
2024-02-24T06:14:31.240Z,33.33
2024-02-24T06:15:02.678Z,33.27
2024-02-24T06:15:34.233Z,33.34
2024-02-24T06:16:05.817Z,33.41
2024-02-24T06:16:37.293Z,33.46
2024-02-24T06:17:08.805Z,33.59
2024-02-24T06:17:40.418Z,33.42
2024-02-24T06:18:12.088Z,33.26
2024-02-24T06:18:43.724Z,33.25
2024-02-24T06:19:15.279Z,33.18
2024-02-24T06:19:46.799Z,33.21
2024-02-24T06:20:22.832Z,33.11
2024-02-24T06:20:56.348Z,33.39
2024-02-24T06:21:28.100Z,33.33
2024-02-24T06:22:02.193Z,33.24
2024-02-24T06:22:33.937Z,33.36
2024-02-24T06:23:05.408Z,33.61
2024-02-24T06:23:36.893Z,33.27
2024-02-24T06:24:08.372Z,33.38
2024-02-24T06:24:39.874Z,33.35
2024-02-24T06:25:11.315Z,33.42
2024-02-24T06:25:42.784Z,33.28
2024-02-24T06:26:14.260Z,33.33
2024-02-24T06:26:45.918Z,33.62
2024-02-24T06:27:17.462Z,33.20
2024-02-24T06:27:51.972Z,33.23
2024-02-24T06:28:23.502Z,33.30
2024-02-24T06:28:55.093Z,33.20
2024-02-24T06:29:26.572Z,33.21
2024-02-24T06:29:58.141Z,33.46
2024-02-24T06:30:29.629Z,33.65
2024-02-24T06:31:01.133Z,33.58
2024-02-24T06:31:32.613Z,33.54
2024-02-24T06:32:04.081Z,33.50
2024-02-24T06:32:35.642Z,33.44
2024-02-24T06:33:07.357Z,33.39
2024-02-24T06:33:39.102Z,33.52
2024-02-24T06:34:10.720Z,33.38
2024-02-24T06:34:42.557Z,33.39
2024-02-24T06:35:14.445Z,33.25
2024-02-24T06:35:45.970Z,33.35
2024-02-24T06:36:17.494Z,33.38
2024-02-24T06:36:48.949Z,33.43
2024-02-24T06:37:20.426Z,33.51
2024-02-24T06:37:51.943Z,33.29
2024-02-24T06:38:23.434Z,33.46
2024-02-24T06:38:54.972Z,33.45
2024-02-24T06:39:26.522Z,33.44
2024-02-24T06:39:58.117Z,33.50
2024-02-24T06:40:37.117Z,33.48
2024-02-24T06:41:16.163Z,33.28
2024-02-24T06:41:47.767Z,33.35
2024-02-24T06:42:19.216Z,33.46
2024-02-24T06:42:50.648Z,33.32
2024-02-24T06:43:22.109Z,33.37
2024-02-24T06:43:53.586Z,33.37
2024-02-24T06:44:25.138Z,33.08
2024-02-24T06:44:56.696Z,33.36
2024-02-24T06:45:28.169Z,33.38
2024-02-24T06:45:59.649Z,33.28
2024-02-24T06:46:31.084Z,33.17
2024-02-24T06:47:06.608Z,33.44
2024-02-24T06:47:43.185Z,33.48
2024-02-24T06:48:14.892Z,33.52